sensor_id;sensor_type;location;lat;lon;timestamp;P1;durP1;ratioP1;P2;durP2;ratioP2
42414;SDS011;28058;46.344;17.786;2023-05-24T04:28:33;14.23;;;10.25;;
42414;SDS011;28058;46.344;17.786;2023-05-24T04:30:59;15.13;;;10.40;;
42414;SDS011;28058;46.344;17.786;2023-05-24T04:33:27;13.70;;;10.82;;
42414;SDS011;28058;46.344;17.786;2023-05-24T04:35:53;12.80;;;10.25;;
42414;SDS011;28058;46.344;17.786;2023-05-24T04:38:20;14.20;;;9.45;;
42414;SDS011;28058;46.344;17.786;2023-05-24T04:40:47;13.32;;;9.65;;
42414;SDS011;28058;46.344;17.786;2023-05-24T04:43:14;14.55;;;9.73;;
42414;SDS011;28058;46.344;17.786;2023-05-24T04:45:41;13.60;;;10.18;;
42414;SDS011;28058;46.344;17.786;2023-05-24T04:48:08;13.18;;;9.90;;
42414;SDS011;28058;46.344;17.786;2023-05-24T04:50:35;12.07;;;9.77;;
42414;SDS011;28058;46.344;17.786;2023-05-24T04:53:03;12.88;;;9.60;;
42414;SDS011;28058;46.344;17.786;2023-05-24T04:55:30;11.45;;;10.18;;
42414;SDS011;28058;46.344;17.786;2023-05-24T04:57:58;13.15;;;10.27;;
42414;SDS011;28058;46.344;17.786;2023-05-24T05:00:24;14.75;;;10.57;;
42414;SDS011;28058;46.344;17.786;2023-05-24T05:02:51;15.80;;;10.40;;
42414;SDS011;28058;46.344;17.786;2023-05-24T05:05:18;13.43;;;9.77;;
42414;SDS011;28058;46.344;17.786;2023-05-24T05:07:45;14.82;;;10.50;;
42414;SDS011;28058;46.344;17.786;2023-05-24T05:10:12;12.93;;;10.48;;
42414;SDS011;28058;46.344;17.786;2023-05-24T05:12:39;15.07;;;11.02;;
42414;SDS011;28058;46.344;17.786;2023-05-24T05:15:06;12.65;;;10.10;;
42414;SDS011;28058;46.344;17.786;2023-05-24T05:17:33;13.00;;;10.48;;
42414;SDS011;28058;46.344;17.786;2023-05-24T05:20:00;13.35;;;11.25;;
42414;SDS011;28058;46.344;17.786;2023-05-24T05:22:27;15.05;;;11.23;;
42414;SDS011;28058;46.344;17.786;2023-05-24T05:24:56;11.40;;;10.20;;
42414;SDS011;28058;46.344;17.786;2023-05-24T05:27:23;14.88;;;10.65;;
42414;SDS011;28058;46.344;17.786;2023-05-24T05:29:49;12.30;;;10.40;;
42414;SDS011;28058;46.344;17.786;2023-05-24T05:32:16;14.63;;;11.38;;
42414;SDS011;28058;46.344;17.786;2023-05-24T05:34:43;12.82;;;10.90;;
42414;SDS011;28058;46.344;17.786;2023-05-24T05:37:10;14.05;;;10.15;;
42414;SDS011;28058;46.344;17.786;2023-05-24T05:39:37;14.18;;;10.45;;
42414;SDS011;28058;46.344;17.786;2023-05-24T05:42:04;13.52;;;10.32;;
42414;SDS011;28058;46.344;17.786;2023-05-24T05:44:31;13.93;;;10.05;;
42414;SDS011;28058;46.344;17.786;2023-05-24T05:46:57;12.60;;;10.32;;
42414;SDS011;28058;46.344;17.786;2023-05-24T05:49:24;12.73;;;9.73;;
42414;SDS011;28058;46.344;17.786;2023-05-24T05:51:51;13.15;;;10.25;;
42414;SDS011;28058;46.344;17.786;2023-05-24T05:54:18;12.63;;;9.68;;
42414;SDS011;28058;46.344;17.786;2023-05-24T05:56:45;13.40;;;10.23;;
42414;SDS011;28058;46.344;17.786;2023-05-24T05:59:13;12.20;;;9.93;;
42414;SDS011;28058;46.344;17.786;2023-05-24T06:01:43;12.05;;;9.70;;
42414;SDS011;28058;46.344;17.786;2023-05-24T06:04:12;11.85;;;9.35;;
42414;SDS011;28058;46.344;17.786;2023-05-24T06:06:39;11.73;;;9.60;;
42414;SDS011;28058;46.344;17.786;2023-05-24T06:09:06;12.27;;;9.60;;
42414;SDS011;28058;46.344;17.786;2023-05-24T06:11:33;12.73;;;8.40;;
42414;SDS011;28058;46.344;17.786;2023-05-24T06:13:59;13.15;;;8.57;;
42414;SDS011;28058;46.344;17.786;2023-05-24T06:16:26;10.27;;;7.53;;
42414;SDS011;28058;46.344;17.786;2023-05-24T06:18:54;10.10;;;8.35;;
42414;SDS011;28058;46.344;17.786;2023-05-24T06:21:31;10.98;;;8.32;;
42414;SDS011;28058;46.344;17.786;2023-05-24T06:23:58;9.52;;;7.93;;
42414;SDS011;28058;46.344;17.786;2023-05-24T06:26:28;8.98;;;7.47;;
42414;SDS011;28058;46.344;17.786;2023-05-24T06:28:55;8.48;;;7.65;;
42414;SDS011;28058;46.344;17.786;2023-05-24T06:31:22;10.27;;;7.50;;
42414;SDS011;28058;46.344;17.786;2023-05-24T06:33:48;8.45;;;6.20;;
42414;SDS011;28058;46.344;17.786;2023-05-24T06:36:29;8.27;;;7.07;;
42414;SDS011;28058;46.344;17.786;2023-05-24T06:38:59;6.68;;;5.85;;
42414;SDS011;28058;46.344;17.786;2023-05-24T06:41:26;8.82;;;6.25;;
42414;SDS011;28058;46.344;17.786;2023-05-24T06:43:53;11.18;;;6.35;;
42414;SDS011;28058;46.344;17.786;2023-05-24T06:46:20;9.32;;;5.28;;
42414;SDS011;28058;46.344;17.786;2023-05-24T06:48:47;7.05;;;4.63;;
42414;SDS011;28058;46.344;17.786;2023-05-24T06:51:14;7.50;;;5.60;;
